METAR Data
IDs: Format: Raw Decoded Include TAF

Data at: 0125 UTC 31 May 2020

METAR for:EDDV (Hannover Arpt, NI, DL)
Text:EDDV 310120Z 05005KT CAVOK 09/04 Q1024
Temperature: 9.0°C ( 48°F)
Dewpoint: 4.0°C ( 39°F) [RH = 71%]
Pressure (altimeter):30.24 inches Hg (1024.0 mb)
Winds:from the NE (50 degrees) at 6 MPH (5 knots; 2.6 m/s)
Visibility:6 or more sm (10+ km)
Ceiling:ceiling and visibility are OK
Clouds:unknown

TAF for:EDDV (Hannover Arpt, NI, DL) issued at 2300 UTC 30 May 2020
Text:TAF EDDV 302300Z 3100/3124 05005KT CAVOK
Forecast period:0000 to 0700 UTC 31 May 2020
Forecast type:FROM: standard forecast or significant change
Winds:from the NE (50 degrees) at 6 MPH (5 knots; 2.6 m/s)
Visibility:6 or more sm (10+ km)
Clouds:missing
Weather:NSW (no significant weather)
Text:BECMG 3107/3110 05010KT
Forecast period:0700 to 1900 UTC 31 May 2020
Forecast type:BECOMING: Conditions expected to become as follows by 1000 UTC 31 May 2020
Winds:from the NE (50 degrees) at 12 MPH (10 knots; 5.1 m/s)
Visibility:6 or more sm (10+ km)
Clouds:missing
Weather:NSW (no significant weather)
Text:BECMG 3119/3121 05005KT
Forecast period:1900 UTC 31 May 2020 to 0000 UTC 01 June 2020
Forecast type:BECOMING: Conditions expected to become as follows by 2100 UTC 31 May 2020
Winds:from the NE (50 degrees) at 6 MPH (5 knots; 2.6 m/s)
Visibility:6 or more sm (10+ km)
Clouds:missing
Weather:NSW (no significant weather)